createdAt,value
2019-05-06T00:02:00.428Z,13.32
2019-05-06T00:04:31.384Z,13.40
2019-05-06T00:07:04.299Z,13.33
2019-05-06T00:09:34.945Z,13.23
2019-05-06T00:12:06.005Z,13.25
2019-05-06T00:14:37.058Z,13.16
2019-05-06T00:17:08.227Z,13.17
2019-05-06T00:19:39.080Z,13.32
2019-05-06T00:22:10.036Z,13.34
2019-05-06T00:24:45.394Z,13.53
2019-05-06T00:27:21.061Z,13.44
2019-05-06T00:29:52.017Z,13.43
2019-05-06T00:32:24.337Z,13.54
2019-05-06T00:34:55.140Z,13.49
2019-05-06T00:37:26.098Z,13.49
2019-05-06T00:39:58.510Z,13.62
2019-05-06T00:42:31.007Z,13.63
2019-05-06T00:45:04.258Z,13.63
2019-05-06T00:47:34.353Z,13.65
2019-05-06T00:50:06.802Z,13.52
2019-05-06T00:52:37.985Z,13.51
2019-05-06T00:55:08.961Z,13.52
2019-05-06T00:57:46.267Z,13.53
2019-05-06T01:00:19.620Z,13.44
2019-05-06T01:02:50.224Z,13.27
2019-05-06T01:05:21.306Z,13.30
2019-05-06T01:07:54.727Z,13.39
2019-05-06T01:10:25.357Z,13.35
2019-05-06T01:12:57.944Z,13.32
2019-05-06T01:15:30.731Z,13.40
2019-05-06T01:18:01.685Z,13.52
2019-05-06T01:20:33.951Z,13.56
2019-05-06T01:23:04.830Z,13.51
2019-05-06T01:25:35.685Z,13.39
2019-05-06T01:28:06.660Z,13.46
2019-05-06T01:30:37.823Z,13.31
2019-05-06T01:33:08.356Z,13.17
2019-05-06T01:35:39.210Z,13.13
2019-05-06T01:38:20.822Z,13.09
2019-05-06T01:41:03.974Z,13.11
2019-05-06T01:43:39.413Z,13.06
2019-05-06T01:46:10.472Z,12.99
2019-05-06T01:48:47.718Z,12.91
2019-05-06T01:51:24.116Z,12.91
2019-05-06T01:53:55.005Z,12.91
2019-05-06T01:56:25.963Z,12.86
2019-05-06T01:58:56.823Z,12.75
2019-05-06T02:01:27.887Z,12.74
2019-05-06T02:03:58.515Z,12.81
2019-05-06T02:06:29.372Z,12.91
2019-05-06T02:09:00.246Z,12.93
2019-05-06T02:11:33.579Z,12.96
2019-05-06T02:14:06.966Z,12.99
2019-05-06T02:16:37.909Z,13.01
2019-05-06T02:19:09.892Z,12.97
2019-05-06T02:21:43.834Z,12.98
2019-05-06T02:24:16.428Z,13.04
2019-05-06T02:26:47.596Z,13.06
2019-05-06T02:29:20.083Z,13.02
2019-05-06T02:31:56.697Z,13.00
2019-05-06T02:34:26.610Z,13.02
2019-05-06T02:37:14.496Z,13.06
2019-05-06T02:39:44.077Z,13.15
2019-05-06T02:42:15.029Z,13.18
2019-05-06T02:44:46.390Z,13.25
2019-05-06T02:47:34.479Z,13.25
2019-05-06T02:50:13.365Z,13.24
2019-05-06T02:52:44.264Z,13.31
2019-05-06T02:55:15.725Z,13.37
2019-05-06T02:57:46.660Z,13.40
2019-05-06T03:00:19.867Z,13.50
2019-05-06T03:02:53.852Z,13.61
2019-05-06T03:05:23.832Z,14.07
2019-05-06T03:07:57.459Z,14.52
2019-05-06T03:10:27.070Z,14.83
2019-05-06T03:12:57.715Z,14.66
2019-05-06T03:15:28.676Z,14.44
2019-05-06T03:17:59.622Z,14.27
2019-05-06T03:20:57.170Z,14.48
2019-05-06T03:23:36.332Z,15.13
2019-05-06T03:26:07.278Z,15.54
2019-05-06T03:28:38.324Z,15.84
2019-05-06T03:31:09.312Z,15.31
2019-05-06T03:34:03.751Z,15.22
2019-05-06T03:36:22.860Z,15.04
2019-05-06T03:38:45.041Z,14.70
2019-05-06T03:41:16.083Z,14.52
2019-05-06T03:43:46.841Z,14.71
2019-05-06T03:46:25.182Z,14.62
2019-05-06T03:49:04.094Z,14.47
2019-05-06T03:51:35.178Z,14.62
2019-05-06T04:01:06.184Z,14.84
2019-05-06T04:03:46.881Z,14.87
2019-05-06T04:06:09.629Z,14.87
2019-05-06T04:08:43.504Z,15.02
2019-05-06T04:11:16.056Z,15.10
2019-05-06T04:13:49.050Z,14.97
2019-05-06T04:16:36.269Z,15.13
2019-05-06T04:19:14.696Z,14.98
2019-05-06T04:21:47.373Z,14.91
2019-05-06T04:24:25.714Z,15.02
2019-05-06T04:27:16.924Z,14.83
2019-05-06T04:29:47.974Z,15.05
2019-05-06T04:32:19.261Z,15.06
2019-05-06T04:34:53.191Z,14.99
2019-05-06T04:37:24.154Z,15.00
2019-05-06T04:39:54.865Z,14.97
2019-05-06T04:42:27.008Z,15.01
2019-05-06T04:44:58.239Z,15.06
2019-05-06T04:47:28.881Z,15.18
2019-05-06T04:50:04.402Z,15.43
2019-05-06T04:52:34.145Z,15.20
2019-05-06T04:55:05.641Z,15.36
2019-05-06T04:57:36.196Z,15.47
2019-05-06T05:00:07.316Z,15.66
2019-05-06T05:02:38.112Z,15.92
2019-05-06T05:05:09.155Z,15.80
2019-05-06T05:07:39.725Z,15.74
2019-05-06T05:10:18.844Z,15.88
2019-05-06T05:12:52.636Z,16.09
2019-05-06T05:15:41.841Z,16.26
2019-05-06T05:18:17.288Z,16.37
2019-05-06T05:20:49.385Z,16.32
2019-05-06T05:23:20.039Z,16.39
2019-05-06T05:25:52.166Z,16.35
2019-05-06T05:28:23.187Z,16.63
2019-05-06T05:30:53.837Z,16.69
2019-05-06T05:33:24.579Z,16.92
2019-05-06T05:35:55.651Z,16.93
2019-05-06T05:38:28.041Z,16.81
2019-05-06T05:41:03.046Z,16.85
2019-05-06T05:43:40.539Z,16.91
2019-05-06T05:46:12.715Z,16.90
2019-05-06T05:48:52.002Z,17.15
2019-05-06T05:51:22.964Z,16.94
2019-05-06T05:53:54.551Z,17.25
2019-05-06T05:56:25.086Z,17.23
2019-05-06T05:58:56.044Z,17.51
2019-05-06T06:01:27.308Z,17.22
2019-05-06T06:03:58.649Z,17.24
2019-05-06T06:06:30.164Z,17.28
2019-05-06T06:09:03.109Z,17.44
2019-05-06T06:11:38.933Z,17.63
2019-05-06T06:14:14.492Z,17.88
2019-05-06T06:16:52.693Z,18.04
2019-05-06T06:19:32.771Z,18.47
2019-05-06T06:22:05.747Z,18.88
2019-05-06T06:24:37.441Z,19.29
2019-05-06T06:27:08.300Z,19.96
2019-05-06T06:29:39.361Z,20.29
2019-05-06T06:32:13.789Z,20.36
2019-05-06T06:34:45.871Z,20.89
2019-05-06T06:37:33.416Z,21.21
2019-05-06T06:40:06.331Z,20.98
2019-05-06T06:42:37.178Z,21.37
2019-05-06T06:45:08.701Z,21.47
2019-05-06T06:47:39.602Z,21.42
2019-05-06T06:50:12.446Z,21.33
2019-05-06T06:52:43.701Z,21.30
2019-05-06T06:55:18.459Z,21.31
2019-05-06T06:57:53.133Z,20.96
2019-05-06T07:00:25.645Z,21.33
2019-05-06T07:02:58.939Z,20.99
2019-05-06T07:05:34.313Z,21.11
2019-05-06T07:08:05.254Z,21.13
2019-05-06T07:10:45.225Z,21.12
2019-05-06T07:13:16.919Z,21.36
2019-05-06T07:15:47.843Z,20.90
2019-05-06T07:18:18.822Z,20.60
2019-05-06T07:21:04.225Z,20.61
2019-05-06T07:23:38.122Z,21.02
2019-05-06T07:26:12.115Z,21.37
2019-05-06T07:28:43.605Z,21.84
2019-05-06T07:31:21.322Z,22.56
2019-05-06T07:33:47.261Z,22.93
2019-05-06T07:36:20.146Z,22.91
2019-05-06T07:38:52.560Z,22.86
2019-05-06T07:41:32.513Z,22.04
2019-05-06T07:44:12.811Z,22.52
2019-05-06T07:47:03.370Z,22.68
2019-05-06T07:49:34.225Z,23.46
2019-05-06T07:52:05.302Z,23.36
2019-05-06T07:54:36.550Z,23.84
2019-05-06T07:57:07.424Z,23.31
2019-05-06T07:59:38.486Z,23.96
2019-05-06T08:02:09.445Z,23.87
2019-05-06T08:04:42.059Z,23.56
2019-05-06T08:07:12.806Z,23.24
2019-05-06T08:09:43.937Z,23.41
2019-05-06T08:12:14.588Z,23.35
2019-05-06T08:14:45.563Z,23.82
2019-05-06T08:17:18.242Z,23.97
2019-05-06T08:19:49.628Z,23.68
2019-05-06T08:22:22.780Z,23.98
2019-05-06T08:24:53.693Z,24.49
2019-05-06T08:27:24.651Z,24.40
2019-05-06T08:29:55.610Z,24.50
2019-05-06T08:32:26.672Z,24.16
2019-05-06T08:34:57.935Z,24.37
2019-05-06T08:37:32.089Z,24.64
2019-05-06T08:40:03.440Z,25.05
2019-05-06T08:42:34.481Z,24.89
2019-05-06T08:45:13.013Z,24.71
2019-05-06T08:47:43.571Z,24.77
2019-05-06T08:50:21.827Z,23.68
2019-05-06T08:53:13.617Z,22.96
2019-05-06T08:55:44.961Z,22.97
2019-05-06T08:58:15.818Z,22.87
2019-05-06T09:00:57.344Z,23.39
2019-05-06T09:03:36.650Z,23.16
2019-05-06T09:06:07.837Z,23.60
2019-05-06T09:08:38.900Z,23.92
2019-05-06T09:11:12.114Z,24.67
2019-05-06T09:13:42.859Z,25.01
2019-05-06T09:16:13.816Z,24.89
2019-05-06T09:18:44.878Z,24.42
2019-05-06T09:21:15.717Z,24.27
2019-05-06T09:23:46.795Z,24.24
2019-05-06T09:26:23.377Z,24.35
2019-05-06T09:29:12.857Z,23.77
2019-05-06T09:31:48.001Z,23.82
2019-05-06T09:34:23.209Z,23.59
2019-05-06T09:37:13.580Z,23.68
2019-05-06T09:39:46.120Z,23.76
2019-05-06T09:42:17.204Z,23.83
2019-05-06T09:44:50.563Z,23.93
2019-05-06T09:47:25.761Z,23.85
2019-05-06T09:49:56.602Z,23.57
2019-05-06T09:52:27.560Z,23.55
2019-05-06T09:55:05.801Z,23.45
2019-05-06T09:57:56.905Z,23.83
2019-05-06T10:00:32.729Z,24.22
2019-05-06T10:03:03.721Z,24.61
2019-05-06T10:05:34.466Z,24.42
2019-05-06T10:08:05.740Z,25.01
2019-05-06T10:10:36.816Z,24.49
2019-05-06T10:13:08.679Z,24.68
2019-05-06T10:15:39.342Z,25.77
2019-05-06T10:18:13.256Z,26.68
2019-05-06T10:20:45.449Z,26.68
2019-05-06T10:23:16.511Z,26.66
2019-05-06T10:25:47.475Z,26.80
2019-05-06T10:28:20.064Z,27.05
2019-05-06T10:30:50.906Z,27.04
2019-05-06T10:33:23.557Z,26.91
2019-05-06T10:35:54.781Z,26.70
2019-05-06T10:42:13.100Z,26.74
2019-05-06T10:44:58.478Z,26.71
2019-05-06T10:47:29.426Z,26.92
2019-05-06T10:50:02.206Z,27.09
2019-05-06T10:52:34.626Z,27.10
2019-05-06T10:55:06.185Z,26.64
2019-05-06T10:57:40.364Z,25.75
2019-05-06T11:00:12.270Z,25.95
2019-05-06T11:02:52.403Z,26.00
2019-05-06T11:05:23.128Z,25.85
2019-05-06T11:07:54.185Z,25.09
2019-05-06T11:10:32.146Z,25.40
2019-05-06T11:12:57.636Z,25.40
2019-05-06T11:15:28.594Z,25.56
2019-05-06T11:17:59.454Z,25.39
2019-05-06T11:20:33.285Z,25.17
2019-05-06T11:23:02.799Z,25.12
2019-05-06T11:25:33.636Z,25.38
2019-05-06T11:28:06.350Z,25.51
2019-05-06T11:30:42.367Z,25.51
2019-05-06T11:33:32.775Z,25.23
2019-05-06T11:36:04.488Z,25.48
2019-05-06T11:38:35.546Z,24.95
2019-05-06T11:41:06.489Z,25.30
2019-05-06T11:43:37.565Z,25.10
2019-05-06T11:46:08.525Z,25.12
2019-05-06T11:48:39.380Z,25.12
2019-05-06T11:51:12.804Z,24.84
2019-05-06T11:53:43.532Z,25.19
2019-05-06T11:56:14.508Z,25.44
2019-05-06T11:58:49.846Z,24.86
2019-05-06T12:01:22.439Z,24.91
2019-05-06T12:03:53.397Z,25.51
2019-05-06T12:06:24.253Z,25.37
2019-05-06T12:08:55.317Z,25.40
2019-05-06T12:11:25.892Z,25.80
2019-05-06T12:13:56.721Z,25.58
2019-05-06T12:16:27.785Z,25.34
2019-05-06T12:18:59.863Z,25.44
2019-05-06T12:21:32.928Z,24.88
2019-05-06T12:24:03.333Z,25.75
2019-05-06T12:26:34.288Z,24.86
2019-05-06T12:29:05.231Z,26.04
2019-05-06T12:31:36.499Z,26.31
2019-05-06T12:34:07.044Z,27.13
2019-05-06T12:36:38.025Z,26.57
2019-05-06T12:39:19.039Z,26.52
2019-05-06T12:42:03.141Z,26.95
2019-05-06T12:44:35.711Z,26.11
2019-05-06T12:47:14.382Z,25.42
2019-05-06T12:49:45.446Z,26.15
2019-05-06T12:52:16.401Z,25.86
2019-05-06T12:54:47.259Z,25.23
2019-05-06T12:57:18.317Z,25.78
2019-05-06T12:59:49.155Z,25.01
2019-05-06T13:02:20.234Z,25.64
2019-05-06T13:04:57.629Z,25.60
2019-05-06T13:07:32.441Z,25.79
2019-05-06T13:10:02.964Z,25.20
2019-05-06T13:12:33.882Z,25.19
2019-05-06T13:15:08.166Z,24.77
2019-05-06T13:17:38.869Z,24.63
2019-05-06T13:20:14.134Z,24.63
2019-05-06T13:22:46.906Z,24.95
2019-05-06T13:25:17.990Z,24.42
2019-05-06T13:27:48.940Z,24.48
2019-05-06T13:30:22.546Z,24.44
2019-05-06T13:33:04.065Z,24.83
2019-05-06T13:35:35.113Z,24.46
2019-05-06T13:38:05.953Z,24.46
2019-05-06T13:40:53.239Z,24.69
2019-05-06T13:43:12.941Z,24.64
2019-05-06T13:45:52.520Z,23.97
2019-05-06T13:48:32.435Z,23.97
2019-05-06T13:51:13.796Z,23.98
2019-05-06T13:53:46.304Z,23.61
2019-05-06T13:56:16.966Z,23.50
2019-05-06T13:58:48.004Z,23.45
2019-05-06T14:01:36.654Z,22.98
2019-05-06T14:04:07.821Z,23.19
2019-05-06T14:06:38.673Z,23.38
2019-05-06T14:09:25.606Z,23.44
2019-05-06T14:11:42.120Z,23.41
2019-05-06T14:14:13.188Z,23.21
2019-05-06T14:16:44.144Z,22.79
2019-05-06T14:19:15.000Z,22.69
2019-05-06T14:21:45.940Z,23.18
2019-05-06T14:24:17.526Z,23.45
2019-05-06T14:26:49.719Z,24.52
2019-05-06T14:29:32.922Z,24.87
2019-05-06T14:32:03.708Z,24.10
2019-05-06T14:34:34.643Z,24.87
2019-05-06T14:37:05.719Z,25.19
2019-05-06T14:39:52.199Z,25.91
2019-05-06T14:42:13.776Z,26.94
2019-05-06T14:44:44.718Z,26.94
2019-05-06T14:47:20.085Z,28.86
2019-05-06T14:49:53.009Z,28.33
2019-05-06T14:52:23.340Z,27.75
2019-05-06T14:54:58.586Z,25.50
2019-05-06T14:57:32.117Z,25.27
2019-05-06T15:00:04.188Z,25.45
2019-05-06T15:02:34.427Z,25.25
2019-05-06T15:05:07.013Z,25.30
2019-05-06T15:07:37.676Z,25.23
2019-05-06T15:10:21.924Z,25.55
2019-05-06T15:12:42.660Z,25.08
2019-05-06T15:15:14.029Z,25.51
2019-05-06T15:17:44.883Z,25.58
2019-05-06T15:20:16.029Z,25.66
2019-05-06T15:22:46.681Z,25.73
2019-05-06T15:25:17.863Z,25.59
2019-05-06T15:27:48.802Z,25.12
2019-05-06T15:30:23.022Z,24.40
2019-05-06T15:32:54.113Z,23.74
2019-05-06T15:35:33.170Z,23.56
2019-05-06T15:38:05.973Z,23.49
2019-05-06T15:40:36.946Z,23.65
2019-05-06T15:43:07.853Z,23.94
2019-05-06T15:45:38.926Z,23.87
2019-05-06T15:48:09.885Z,24.21
2019-05-06T15:50:45.347Z,24.72
2019-05-06T15:53:13.438Z,24.29
2019-05-06T15:55:44.331Z,23.92
2019-05-06T15:58:15.389Z,23.89
2019-05-06T16:00:46.641Z,23.90
2019-05-06T16:03:17.271Z,23.60
2019-05-06T16:05:48.742Z,23.52
2019-05-06T16:08:19.493Z,23.28
2019-05-06T16:10:55.240Z,22.64
2019-05-06T16:13:22.946Z,22.33
2019-05-06T16:15:54.310Z,22.15
2019-05-06T16:18:25.072Z,21.90
2019-05-06T16:20:57.671Z,21.54
2019-05-06T16:23:32.583Z,21.41
2019-05-06T16:26:03.261Z,21.32
2019-05-06T16:28:34.118Z,20.99
2019-05-06T16:31:05.180Z,20.77
2019-05-06T16:33:37.163Z,20.67
2019-05-06T16:36:08.121Z,20.53
2019-05-06T16:38:39.189Z,20.37
2019-05-06T16:41:13.179Z,20.25
2019-05-06T16:43:42.741Z,20.09
2019-05-06T16:46:13.768Z,20.09
2019-05-06T16:48:45.483Z,20.00
2019-05-06T16:51:16.325Z,19.95
2019-05-06T16:54:01.937Z,19.84
2019-05-06T16:56:36.735Z,19.69
2019-05-06T16:59:08.823Z,19.60
2019-05-06T17:01:42.613Z,19.49
2019-05-06T17:04:18.115Z,19.37
2019-05-06T17:06:51.865Z,19.16
2019-05-06T17:09:27.049Z,18.95
2019-05-06T17:11:54.979Z,18.86
2019-05-06T17:14:28.700Z,18.68
2019-05-06T17:16:59.762Z,18.59
2019-05-06T17:19:32.423Z,18.44
2019-05-06T17:22:03.236Z,18.28
2019-05-06T17:24:34.171Z,18.19
2019-05-06T17:27:05.433Z,18.03
2019-05-06T17:29:37.936Z,17.79
2019-05-06T17:32:11.971Z,17.63
2019-05-06T18:19:51.189Z,16.33
2019-05-06T18:22:22.700Z,16.33
2019-05-06T18:24:54.392Z,16.33
2019-05-06T18:27:29.258Z,16.39
2019-05-06T18:30:15.102Z,16.52
2019-05-06T18:32:33.286Z,16.70
2019-05-06T18:35:08.100Z,16.89
2019-05-06T18:37:42.683Z,16.82
2019-05-06T18:40:19.439Z,16.88
2019-05-06T18:42:52.489Z,16.73
2019-05-06T18:45:26.123Z,16.66
2019-05-06T18:47:59.566Z,16.63
2019-05-06T18:50:33.096Z,16.65
2019-05-06T18:53:17.727Z,16.49
2019-05-06T18:55:58.167Z,16.44
2019-05-06T18:58:50.213Z,16.37
2019-05-06T19:01:24.888Z,16.21
2019-05-06T19:04:03.395Z,16.12
2019-05-06T19:06:39.750Z,16.06
2019-05-06T19:09:29.426Z,15.89
2019-05-06T19:12:07.073Z,15.81
2019-05-06T19:14:43.266Z,15.80
2019-05-06T19:17:22.488Z,15.74
2019-05-06T19:20:05.237Z,15.72
2019-05-06T19:22:43.598Z,15.64
2019-05-06T19:25:18.528Z,15.57
2019-05-06T19:27:58.488Z,15.56
2019-05-06T19:30:33.350Z,15.60
2019-05-06T19:33:07.147Z,15.87
2019-05-06T19:35:43.148Z,15.89
2019-05-06T19:38:21.666Z,16.06
2019-05-06T19:40:55.630Z,16.23
2019-05-06T19:43:29.826Z,16.33
2019-05-06T19:46:12.122Z,16.29
2019-05-06T19:48:52.426Z,16.27
2019-05-06T19:51:28.043Z,16.29
2019-05-06T19:54:02.718Z,16.33
2019-05-06T19:56:34.873Z,16.42
2019-05-06T19:59:07.586Z,16.40
2019-05-06T20:01:38.645Z,16.40
2019-05-06T20:04:13.174Z,16.46
2019-05-06T20:06:47.205Z,16.34
2019-05-06T20:09:22.073Z,16.50
2019-05-06T20:11:59.253Z,16.33
2019-05-06T20:14:30.316Z,16.40
2019-05-06T20:17:03.584Z,16.35
2019-05-06T20:19:34.132Z,16.33
2019-05-06T20:22:06.969Z,16.33
2019-05-06T20:24:37.623Z,16.35
2019-05-06T20:27:08.579Z,16.38
2019-05-06T20:29:39.747Z,16.30
2019-05-06T20:32:12.151Z,16.28
2019-05-06T20:34:43.048Z,16.16
2019-05-06T20:37:14.150Z,16.10
2019-05-06T20:39:45.003Z,16.13
2019-05-06T20:42:16.054Z,16.12
2019-05-06T20:44:47.024Z,16.17
2019-05-06T20:47:18.089Z,16.29
2019-05-06T20:49:49.040Z,16.36
2019-05-06T20:52:19.898Z,16.30
2019-05-06T20:54:50.960Z,16.22
2019-05-06T20:57:23.063Z,16.30
2019-05-06T20:59:54.006Z,16.21
2019-05-06T21:02:25.827Z,16.21
2019-05-06T21:04:57.534Z,16.23
2019-05-06T21:07:28.613Z,16.30
2019-05-06T21:09:59.576Z,16.27
2019-05-06T21:12:30.616Z,16.29
2019-05-06T21:15:02.333Z,16.31
2019-05-06T21:17:33.172Z,16.35
2019-05-06T21:20:05.298Z,16.23
2019-05-06T21:22:36.001Z,16.18
2019-05-06T21:25:10.117Z,16.16
2019-05-06T21:27:42.386Z,16.17
2019-05-06T21:30:13.686Z,16.17
2019-05-06T21:32:44.339Z,16.06
2019-05-06T21:35:15.174Z,15.99
2019-05-06T21:37:46.051Z,15.96
2019-05-06T21:40:17.008Z,15.98
2019-05-06T21:42:47.965Z,16.03
2019-05-06T21:45:37.127Z,15.93
2019-05-06T21:48:08.211Z,15.98
2019-05-06T21:50:39.026Z,15.98
2019-05-06T21:53:13.819Z,16.09
2019-05-06T21:55:42.393Z,16.08
2019-05-06T21:58:13.232Z,16.11
2019-05-06T22:00:52.670Z,16.21
2019-05-06T22:03:23.553Z,16.34
2019-05-06T22:05:54.737Z,16.23
2019-05-06T22:08:25.657Z,16.20
2019-05-06T22:10:56.513Z,16.20
2019-05-06T22:13:27.490Z,16.33
2019-05-06T22:15:58.446Z,16.30
2019-05-06T22:18:30.962Z,16.34
2019-05-06T22:21:09.057Z,16.53
2019-05-06T22:23:42.082Z,16.54
2019-05-06T22:26:16.104Z,16.50
2019-05-06T22:28:45.392Z,16.40
2019-05-06T22:31:16.366Z,16.56
2019-05-06T22:33:47.210Z,16.57
2019-05-06T22:36:18.166Z,16.54
2019-05-06T22:38:49.123Z,16.46
2019-05-06T22:41:20.406Z,16.42
2019-05-06T22:43:53.147Z,16.35
2019-05-06T22:46:23.737Z,16.32
2019-05-06T22:48:54.841Z,16.30
2019-05-06T22:51:25.754Z,16.30
2019-05-06T22:53:56.815Z,16.31
2019-05-06T22:56:27.797Z,16.44
2019-05-06T22:58:58.853Z,16.42
2019-05-06T23:01:32.508Z,16.35
2019-05-06T23:04:03.440Z,16.33
2019-05-06T23:06:34.490Z,16.26
2019-05-06T23:09:08.209Z,16.21
2019-05-06T23:11:39.376Z,16.15
2019-05-06T23:14:12.421Z,16.14
2019-05-06T23:16:42.703Z,16.18
2019-05-06T23:19:13.564Z,16.15
2019-05-06T23:21:44.638Z,16.28
2019-05-06T23:24:15.599Z,16.33
2019-05-06T23:26:46.659Z,16.16
2019-05-06T23:29:17.599Z,16.11
2019-05-06T23:31:48.484Z,16.10
2019-05-06T23:34:19.515Z,16.13
2019-05-06T23:37:02.964Z,16.24
2019-05-06T23:40:12.631Z,16.10
2019-05-06T23:43:22.068Z,16.17
2019-05-06T23:46:28.755Z,16.08
2019-05-06T23:49:36.228Z,15.80
2019-05-06T23:52:43.492Z,15.68
2019-05-06T23:55:51.955Z,15.75
2019-05-06T23:58:22.513Z,15.73
